Startpagina
METAR-TAF:

METAR-TAF

Vliegvelden :

Cairns, Australië

Cairns Airport

breedte: 16-53S, lengte: 145-45E, hoogte: 3 m

Actueel weer

Dit bericht is 38 minuten geleden gemaakt, om 06:30 UTC
Wind 7 kt uit het noorden
Temperatuur 27°C
Vochtigheid 74%
Druk 1011 hPa
Zicht 10 km of meer
Weinig wolken op 2500 ft

METAR: YBCS 270630Z 35007KT 9999 FEW025 27/22 Q1011 NOSIG

Tijdstip: 17:08 (07:08 UTC)

Verwachting

Dit bericht is 2 uur en het 8 minuten geleden gemaakt, om 05:00 UTC
Verwachting geldig van 27 om 06 UTC tot 28 om 06 UTC
Wind 10 kt uit het noordoosten
Zicht 10 km of meer
Weinig wolken op 2800 ft
Van 27 om 0800 UTC
Wind 8 kt uit het zuiden
Zicht 10 km of meer
Weinig wolken op 2500 ft
Van 27 om 2300 UTC
Wind 12 kt uit het zuidzuidoosten
Zicht 10 km of meer
Weinig wolken op 2800 ft

TAF: YBCS 270500Z 2706/2806 04010KT 9999 FEW028 FM270800 17008KT 9999 FEW025 FM272300 15012KT 9999 FEW028

Waarnemingen en weersverwachtingen van meer dan 4000 vliegvelden (METAR en TAF).

De beschikbare stations zijn de gele en rode punten op de kaart.

Ga met uw muis naar het station om de naam te zien.

Klik dan om waarnemingen en weersverwachtingen te zien.

kaart wijzigen: klik op de groene knoppen met een zwart kruis om in te zoomen, op de groene knop met een streepje om uit te zoomen of op de groene pijlen voor aangrenzende kaarten.


METAR-TAF: